createdAt,value
2022-09-22T00:01:33.916Z,14.00
2022-09-22T00:04:06.137Z,9.82
2022-09-22T00:06:39.094Z,10.73
2022-09-22T00:09:10.890Z,13.10
2022-09-22T00:11:42.565Z,13.23
2022-09-22T00:14:23.416Z,12.45
2022-09-22T00:17:01.311Z,15.57
2022-09-22T00:19:32.638Z,11.27
2022-09-22T00:22:00.074Z,11.18
2022-09-22T00:24:28.270Z,12.45
2022-09-22T00:26:58.067Z,9.98
2022-09-22T00:29:27.332Z,9.73
2022-09-22T00:31:55.565Z,11.05
2022-09-22T00:34:26.186Z,10.02
2022-09-22T00:36:53.609Z,11.68
2022-09-22T00:39:20.968Z,8.23
2022-09-22T00:41:51.170Z,9.48
2022-09-22T00:44:33.190Z,9.40
2022-09-22T00:47:07.085Z,10.85
2022-09-22T00:49:51.287Z,10.25
2022-09-22T00:52:52.698Z,11.23
2022-09-22T00:55:30.283Z,9.80
2022-09-22T00:58:01.816Z,9.90
2022-09-22T01:00:29.861Z,8.90
2022-09-22T01:03:00.557Z,8.95
2022-09-22T01:05:29.712Z,9.90
2022-09-22T01:07:56.737Z,11.00
2022-09-22T01:10:24.313Z,12.02
2022-09-22T01:13:14.263Z,9.82
2022-09-22T01:16:28.795Z,9.13
2022-09-22T01:19:29.347Z,10.13
2022-09-22T01:22:33.457Z,9.63
2022-09-22T01:25:50.880Z,11.80
2022-09-22T01:28:42.062Z,9.32
2022-09-22T01:31:23.922Z,8.57
2022-09-22T01:34:44.817Z,10.65
2022-09-22T01:37:43.292Z,10.18
2022-09-22T01:40:33.637Z,8.95
2022-09-22T01:43:39.447Z,9.38
2022-09-22T01:46:14.803Z,10.98
2022-09-22T01:48:46.078Z,9.85
2022-09-22T01:51:19.889Z,9.32
2022-09-22T01:54:01.760Z,11.55
2022-09-22T01:56:31.726Z,10.13
2022-09-22T01:59:04.177Z,10.32
2022-09-22T02:01:42.848Z,11.25
2022-09-22T02:04:40.540Z,10.10
2022-09-22T02:07:13.347Z,11.00
2022-09-22T02:09:42.745Z,8.52
2022-09-22T02:12:09.675Z,11.13
2022-09-22T02:14:36.669Z,11.32
2022-09-22T02:17:03.687Z,12.48
2022-09-22T02:19:40.278Z,12.00
2022-09-22T02:22:10.757Z,12.85
2022-09-22T02:24:45.531Z,15.23
2022-09-22T02:27:28.371Z,11.27
2022-09-22T02:30:05.017Z,11.70
2022-09-22T02:32:35.277Z,15.43
2022-09-22T02:35:02.476Z,10.95
2022-09-22T02:37:51.888Z,13.80
2022-09-22T02:40:48.936Z,12.55
2022-09-22T02:43:38.948Z,13.15
2022-09-22T02:46:24.139Z,13.52
2022-09-22T02:48:56.896Z,12.07
2022-09-22T02:51:24.192Z,14.73
2022-09-22T02:53:52.333Z,13.80
2022-09-22T02:56:20.171Z,13.02
2022-09-22T02:58:47.354Z,14.85
2022-09-22T03:01:14.310Z,14.60
2022-09-22T03:03:41.513Z,11.25
2022-09-22T03:06:08.461Z,12.98
2022-09-22T03:08:35.416Z,14.63
2022-09-22T03:11:02.302Z,14.10
2022-09-22T03:13:29.279Z,15.10
2022-09-22T03:15:56.358Z,13.32
2022-09-22T03:18:23.457Z,14.63
2022-09-22T03:20:50.363Z,12.80
2022-09-22T03:23:17.280Z,12.57
2022-09-22T03:25:44.194Z,15.57
2022-09-22T03:28:11.100Z,12.65
2022-09-22T03:30:40.788Z,12.68
2022-09-22T03:33:07.688Z,18.15
2022-09-22T03:35:34.651Z,14.75
2022-09-22T03:38:01.687Z,17.17
2022-09-22T03:40:28.657Z,15.82
2022-09-22T03:42:55.824Z,13.07
2022-09-22T03:45:22.903Z,17.10
2022-09-22T03:47:49.793Z,13.15
2022-09-22T03:50:16.920Z,14.60
2022-09-22T03:52:45.136Z,13.27
2022-09-22T03:55:12.458Z,15.77
2022-09-22T03:57:40.438Z,17.13
2022-09-22T04:00:08.946Z,18.70
2022-09-22T04:02:35.828Z,16.70
2022-09-22T04:05:02.809Z,18.42
2022-09-22T04:07:29.980Z,16.02
2022-09-22T04:09:57.686Z,18.23
2022-09-22T04:12:24.667Z,15.73
2022-09-22T04:14:51.505Z,18.58
2022-09-22T04:17:20.559Z,14.73
2022-09-22T04:19:48.164Z,11.18
2022-09-22T04:22:15.015Z,15.52
2022-09-22T04:24:42.103Z,14.48
2022-09-22T04:27:19.705Z,20.25
2022-09-22T04:29:47.892Z,16.70
2022-09-22T04:32:15.201Z,22.60
2022-09-22T04:34:43.054Z,18.15
2022-09-22T04:37:11.702Z,18.00
2022-09-22T04:39:38.738Z,15.82
2022-09-22T04:42:14.603Z,20.65
2022-09-22T04:44:41.372Z,16.65
2022-09-22T04:47:08.280Z,15.15
2022-09-22T04:49:35.215Z,21.52
2022-09-22T04:52:02.647Z,19.80
2022-09-22T04:54:29.455Z,23.60
2022-09-22T04:56:56.246Z,22.95
2022-09-22T04:59:23.172Z,24.48
2022-09-22T05:01:50.044Z,20.63
2022-09-22T05:04:18.298Z,20.75
2022-09-22T05:06:45.357Z,27.73
2022-09-22T05:09:12.198Z,23.05
2022-09-22T05:11:40.324Z,23.20
2022-09-22T05:14:07.253Z,21.02
2022-09-22T05:16:34.261Z,24.67
2022-09-22T05:19:01.267Z,24.98
2022-09-22T05:21:28.197Z,22.90
2022-09-22T05:23:56.389Z,28.10
2022-09-22T05:26:23.199Z,27.63
2022-09-22T05:28:51.460Z,31.13
2022-09-22T05:31:18.395Z,27.60
2022-09-22T05:33:45.878Z,26.40
2022-09-22T05:36:12.913Z,25.55
2022-09-22T05:38:39.758Z,26.63
2022-09-22T05:41:06.898Z,30.67
2022-09-22T05:43:33.799Z,34.35
2022-09-22T05:46:01.121Z,28.95
2022-09-22T05:48:31.219Z,26.40
2022-09-22T05:50:59.099Z,33.45
2022-09-22T05:53:38.220Z,31.13
2022-09-22T05:56:05.331Z,34.70
2022-09-22T05:58:32.162Z,43.92
2022-09-22T06:00:59.087Z,33.40
2022-09-22T06:03:26.525Z,36.88
2022-09-22T06:05:53.434Z,40.58
2022-09-22T06:08:21.889Z,37.30
2022-09-22T06:10:51.548Z,32.30
2022-09-22T06:13:18.551Z,39.42
2022-09-22T06:15:49.200Z,36.08
2022-09-22T06:18:23.422Z,37.88
2022-09-22T06:23:17.891Z,40.92
2022-09-22T06:25:44.756Z,41.72
2022-09-22T06:28:14.721Z,35.13
2022-09-22T06:30:42.142Z,37.28
2022-09-22T06:33:10.439Z,33.53
2022-09-22T06:35:38.220Z,39.10
2022-09-22T06:38:12.774Z,38.35
2022-09-22T06:40:39.819Z,41.10
2022-09-22T06:43:13.170Z,55.92
2022-09-22T06:45:40.922Z,36.53
2022-09-22T06:48:10.673Z,37.05
2022-09-22T06:50:41.393Z,40.70
2022-09-22T06:53:13.975Z,42.55
2022-09-22T06:55:44.130Z,38.47
2022-09-22T06:58:12.895Z,36.58
2022-09-22T07:00:43.088Z,42.40
2022-09-22T07:03:22.991Z,38.42
2022-09-22T07:06:01.199Z,36.80
2022-09-22T07:08:35.002Z,41.90
2022-09-22T07:11:04.850Z,42.80
2022-09-22T07:13:32.793Z,38.75
2022-09-22T07:16:20.499Z,45.67
2022-09-22T07:18:53.070Z,35.55
2022-09-22T07:21:38.315Z,41.55
2022-09-22T07:24:08.438Z,36.60
2022-09-22T07:26:38.903Z,39.90
2022-09-22T07:29:11.810Z,38.00
2022-09-22T07:31:39.438Z,35.83
2022-09-22T07:34:06.608Z,36.88
2022-09-22T07:36:35.213Z,37.05
2022-09-22T07:39:07.657Z,34.42
2022-09-22T07:41:44.246Z,29.85
2022-09-22T07:44:33.120Z,31.42
2022-09-22T07:47:01.496Z,27.25
2022-09-22T07:49:30.137Z,28.05
2022-09-22T07:51:57.850Z,25.38
2022-09-22T07:54:26.881Z,25.55
2022-09-22T07:56:58.716Z,24.42
2022-09-22T07:59:26.615Z,26.40
2022-09-22T08:01:54.058Z,24.55
2022-09-22T08:04:23.160Z,24.08
2022-09-22T08:06:55.741Z,22.38
2022-09-22T08:09:24.724Z,23.23
2022-09-22T08:11:53.349Z,24.42
2022-09-22T08:14:23.062Z,26.17
2022-09-22T08:16:51.777Z,22.75
2022-09-22T08:19:19.416Z,23.00
2022-09-22T08:22:45.833Z,21.75
2022-09-22T08:25:12.933Z,23.00
2022-09-22T08:27:39.937Z,19.65
2022-09-22T08:30:07.986Z,21.75
2022-09-22T08:32:36.179Z,21.27
2022-09-22T08:35:04.095Z,22.90
2022-09-22T08:37:32.371Z,20.17
2022-09-22T08:39:59.346Z,21.83
2022-09-22T08:42:28.785Z,20.55
2022-09-22T08:45:11.150Z,20.15
2022-09-22T08:48:12.169Z,23.15
2022-09-22T08:51:21.989Z,22.60
2022-09-22T08:53:51.797Z,22.63
2022-09-22T08:56:30.620Z,18.80
2022-09-22T08:59:13.660Z,19.73
2022-09-22T09:01:55.567Z,18.33
2022-09-22T09:05:03.640Z,17.33
2022-09-22T09:07:37.620Z,18.10
2022-09-22T09:10:46.206Z,18.08
2022-09-22T09:13:31.807Z,16.08
2022-09-22T09:18:56.426Z,18.73
2022-09-22T09:21:25.141Z,17.50
2022-09-22T09:26:47.063Z,14.27
2022-09-22T09:29:23.013Z,16.83
2022-09-22T09:31:54.328Z,16.60
2022-09-22T09:34:29.184Z,14.27
2022-09-22T09:37:08.878Z,16.88
2022-09-22T09:39:40.195Z,13.45
2022-09-22T09:42:31.636Z,14.00
2022-09-22T09:45:03.289Z,14.05
2022-09-22T09:47:43.524Z,14.23
2022-09-22T09:50:12.283Z,13.32
2022-09-22T09:52:39.752Z,13.77
2022-09-22T09:55:26.716Z,13.13
2022-09-22T09:58:37.032Z,13.30
2022-09-22T10:01:05.895Z,11.85
2022-09-22T10:03:47.072Z,12.00
2022-09-22T10:06:16.066Z,10.25
2022-09-22T10:08:46.554Z,11.70
2022-09-22T10:11:15.288Z,9.95
2022-09-22T10:13:44.059Z,12.38
2022-09-22T10:16:28.997Z,8.63
2022-09-22T10:18:58.889Z,10.32
2022-09-22T10:21:28.252Z,11.93
2022-09-22T10:23:58.728Z,15.48
2022-09-22T10:26:27.947Z,12.07
2022-09-22T10:29:13.118Z,11.57
2022-09-22T10:31:41.902Z,13.75
2022-09-22T10:34:36.196Z,11.48
2022-09-22T10:37:10.812Z,11.32
2022-09-22T10:39:49.457Z,11.80
2022-09-22T10:42:27.796Z,13.70
2022-09-22T10:45:01.870Z,10.48
2022-09-22T10:47:56.629Z,9.07
2022-09-22T10:50:59.550Z,11.02
2022-09-22T10:53:29.732Z,12.10
2022-09-22T10:56:08.725Z,8.10
2022-09-22T10:58:49.540Z,10.20
2022-09-22T11:02:13.845Z,9.57
2022-09-22T11:04:55.756Z,9.07
2022-09-22T11:08:18.131Z,10.02
2022-09-22T11:11:28.981Z,6.85
2022-09-22T11:14:23.041Z,10.45
2022-09-22T11:17:05.705Z,9.35
2022-09-22T11:19:56.262Z,8.90
2022-09-22T11:22:58.984Z,9.38
2022-09-22T11:25:55.480Z,9.98
2022-09-22T11:29:07.496Z,8.88
2022-09-22T11:31:50.021Z,10.45
2022-09-22T11:34:51.689Z,9.55
2022-09-22T11:37:43.422Z,9.90
2022-09-22T11:40:48.745Z,8.27
2022-09-22T11:43:57.055Z,7.45
2022-09-22T11:47:03.595Z,8.45
2022-09-22T11:50:09.017Z,5.95
2022-09-22T11:53:01.858Z,7.93
2022-09-22T11:56:28.565Z,8.75
2022-09-22T11:59:04.738Z,10.65
2022-09-22T12:01:38.097Z,8.85
2022-09-22T12:04:24.205Z,9.25
2022-09-22T12:06:55.612Z,6.00
2022-09-22T12:09:43.785Z,9.15
2022-09-22T12:12:19.086Z,9.57
2022-09-22T12:14:57.614Z,7.32
2022-09-22T12:17:38.140Z,7.13
2022-09-22T12:20:17.291Z,8.98
2022-09-22T12:23:09.016Z,6.55
2022-09-22T12:25:54.158Z,8.20
2022-09-22T12:28:32.783Z,6.55
2022-09-22T12:31:13.157Z,7.10
2022-09-22T12:33:51.883Z,5.95
2022-09-22T12:36:39.242Z,6.43
2022-09-22T12:39:23.882Z,7.53
2022-09-22T12:41:52.540Z,6.33
2022-09-22T12:44:44.028Z,7.40
2022-09-22T12:47:31.474Z,6.80
2022-09-22T12:50:07.184Z,8.93
2022-09-22T12:53:03.990Z,7.63
2022-09-22T12:55:41.743Z,8.80
2022-09-22T12:58:20.655Z,7.53
2022-09-22T13:00:50.646Z,7.80
2022-09-22T13:03:26.983Z,6.50
2022-09-22T13:06:21.239Z,6.22
2022-09-22T13:08:54.255Z,5.78
2022-09-22T13:12:15.240Z,5.57
2022-09-22T13:15:17.139Z,5.00
2022-09-22T13:17:51.743Z,6.00
2022-09-22T13:20:36.677Z,7.55
2022-09-22T13:23:12.214Z,7.30
2022-09-22T13:25:40.550Z,5.90
2022-09-22T13:28:17.866Z,6.03
2022-09-22T13:30:47.097Z,4.93
2022-09-22T13:33:20.976Z,5.63
2022-09-22T13:36:12.460Z,5.00
2022-09-22T13:38:45.765Z,6.35
2022-09-22T13:41:24.263Z,5.25
2022-09-22T13:44:01.115Z,4.55
2022-09-22T13:46:43.259Z,6.10
2022-09-22T13:49:13.694Z,4.28
2022-09-22T13:51:41.141Z,3.72
2022-09-22T13:54:10.498Z,4.57
2022-09-22T13:56:38.378Z,5.50
2022-09-22T13:59:05.655Z,5.10
2022-09-22T14:01:32.677Z,4.97
2022-09-22T14:04:00.077Z,4.80
2022-09-22T14:06:31.693Z,4.28
2022-09-22T14:09:00.652Z,5.03
2022-09-22T14:11:32.236Z,7.10
2022-09-22T14:14:05.443Z,5.88
2022-09-22T14:17:17.917Z,5.95
2022-09-22T14:19:54.093Z,4.93
2022-09-22T14:22:24.633Z,5.38
2022-09-22T14:24:57.169Z,6.40
2022-09-22T14:27:32.631Z,7.13
2022-09-22T14:30:00.809Z,5.57
2022-09-22T14:32:41.352Z,7.57
2022-09-22T14:35:36.863Z,9.18
2022-09-22T14:38:14.778Z,6.00
2022-09-22T14:40:58.960Z,5.80
2022-09-22T14:43:37.203Z,8.30
2022-09-22T14:46:31.783Z,6.55
2022-09-22T14:48:59.466Z,5.10
2022-09-22T14:51:27.766Z,8.82
2022-09-22T14:53:58.825Z,5.90
2022-09-22T14:56:29.480Z,7.75
2022-09-22T14:59:27.985Z,8.40
2022-09-22T15:02:15.793Z,8.30
2022-09-22T15:04:50.825Z,6.20
2022-09-22T15:07:36.885Z,7.28
2022-09-22T15:10:19.183Z,5.32
2022-09-22T15:12:49.543Z,8.15
2022-09-22T15:15:17.809Z,6.65
2022-09-22T15:18:13.743Z,5.65
2022-09-22T15:21:12.619Z,6.75
2022-09-22T15:23:48.377Z,7.15
2022-09-22T15:26:24.958Z,8.13
2022-09-22T15:28:58.263Z,5.85
2022-09-22T15:31:28.341Z,7.35
2022-09-22T15:33:57.917Z,6.65
2022-09-22T15:36:25.899Z,8.57
2022-09-22T15:39:21.857Z,6.00
2022-09-22T15:44:18.467Z,8.18
2022-09-22T15:46:51.848Z,7.97
2022-09-22T15:49:24.718Z,7.60
2022-09-22T15:51:52.137Z,13.38
2022-09-22T15:54:24.871Z,11.30
2022-09-22T15:57:42.747Z,8.90
2022-09-22T16:00:30.245Z,7.20
2022-09-22T16:02:57.588Z,6.88
2022-09-22T16:05:25.684Z,7.00
2022-09-22T16:07:53.297Z,8.10
2022-09-22T16:10:28.024Z,7.43
2022-09-22T16:12:55.373Z,8.93
2022-09-22T16:15:22.299Z,6.82
2022-09-22T16:18:54.846Z,10.35
2022-09-22T16:21:33.320Z,9.23
2022-09-22T16:24:06.344Z,11.20
2022-09-22T16:26:38.959Z,10.85
2022-09-22T16:30:03.303Z,9.77
2022-09-22T16:32:30.280Z,12.75
2022-09-22T16:34:57.300Z,11.80
2022-09-22T16:37:24.297Z,11.48
2022-09-22T16:39:51.164Z,9.45
2022-09-22T16:42:22.865Z,11.98
2022-09-22T16:44:50.790Z,12.05
2022-09-22T16:47:29.782Z,9.73
2022-09-22T16:49:57.321Z,10.60
2022-09-22T16:52:28.039Z,10.18
2022-09-22T16:54:55.414Z,9.90
2022-09-22T16:57:22.334Z,10.45
2022-09-22T16:59:50.616Z,10.68
2022-09-22T17:02:17.816Z,11.68
2022-09-22T17:04:45.853Z,12.20
2022-09-22T17:07:13.359Z,10.25
2022-09-22T17:09:40.535Z,7.30
2022-09-22T17:12:11.321Z,7.70
2022-09-22T17:14:41.705Z,6.43
2022-09-22T17:17:10.148Z,8.77
2022-09-22T17:19:37.229Z,9.82
2022-09-22T17:22:05.314Z,9.88
2022-09-22T17:24:32.337Z,6.90
2022-09-22T17:26:59.942Z,8.23
2022-09-22T17:29:31.552Z,7.90
2022-09-22T17:32:03.277Z,7.82
2022-09-22T17:34:35.341Z,7.50
2022-09-22T17:37:03.552Z,9.85
2022-09-22T17:39:34.827Z,9.35
2022-09-22T17:42:01.839Z,7.07
2022-09-22T17:44:33.574Z,9.07
2022-09-22T17:47:18.930Z,12.20
2022-09-22T17:50:04.666Z,8.80
2022-09-22T17:52:40.613Z,9.80
2022-09-22T17:55:20.441Z,9.52
2022-09-22T17:57:47.857Z,10.07
2022-09-22T18:00:21.386Z,8.27
2022-09-22T18:02:51.412Z,11.02
2022-09-22T18:05:22.188Z,9.45
2022-09-22T18:07:53.519Z,8.57
2022-09-22T18:10:21.008Z,9.48
2022-09-22T18:12:47.875Z,9.48
2022-09-22T18:15:17.331Z,8.57
2022-09-22T18:17:44.854Z,11.80
2022-09-22T18:20:23.570Z,9.75
2022-09-22T18:22:50.474Z,7.95
2022-09-22T18:25:19.790Z,10.73
2022-09-22T18:27:48.786Z,11.00
2022-09-22T18:30:17.278Z,9.55
2022-09-22T18:32:44.158Z,8.80
2022-09-22T18:35:13.092Z,9.25
2022-09-22T18:37:40.480Z,8.95
2022-09-22T18:40:09.370Z,8.93
2022-09-22T18:42:36.880Z,9.68
2022-09-22T18:45:04.668Z,11.80
2022-09-22T18:47:31.851Z,9.48
2022-09-22T18:50:01.109Z,8.45
2022-09-22T18:52:27.993Z,9.00
2022-09-22T18:54:55.188Z,10.10
2022-09-22T18:57:25.757Z,11.23
2022-09-22T18:59:54.147Z,9.60
2022-09-22T19:02:23.010Z,12.07
2022-09-22T19:04:51.858Z,9.90
2022-09-22T19:07:41.990Z,11.52
2022-09-22T19:10:13.592Z,9.45
2022-09-22T19:12:40.779Z,9.75
2022-09-22T19:15:15.619Z,10.60
2022-09-22T19:17:45.124Z,10.10
2022-09-22T19:20:23.427Z,8.90
2022-09-22T19:22:51.048Z,8.50
2022-09-22T19:25:21.614Z,9.40
2022-09-22T19:27:50.004Z,10.38
2022-09-22T19:30:20.536Z,9.32
2022-09-22T19:32:50.282Z,10.55
2022-09-22T19:35:17.301Z,8.98
2022-09-22T19:37:44.179Z,9.93
2022-09-22T19:40:19.055Z,10.82
2022-09-22T19:42:49.977Z,9.25
2022-09-22T19:45:16.799Z,8.60
2022-09-22T19:47:43.611Z,7.57
2022-09-22T19:50:10.485Z,9.18
2022-09-22T19:52:38.359Z,10.88
2022-09-22T19:55:11.649Z,8.75
2022-09-22T19:57:41.831Z,8.93
2022-09-22T20:00:26.147Z,8.73
2022-09-22T20:02:58.981Z,11.02
2022-09-22T20:05:35.157Z,8.70
2022-09-22T20:08:04.035Z,8.50
2022-09-22T20:10:31.726Z,9.45
2022-09-22T20:12:58.868Z,10.85
2022-09-22T20:15:27.545Z,9.13
2022-09-22T20:17:55.381Z,7.90
2022-09-22T20:20:25.609Z,7.80
2022-09-22T20:23:00.304Z,8.63
2022-09-22T20:25:31.574Z,8.73
2022-09-22T20:27:59.102Z,7.55
2022-09-22T20:30:27.586Z,9.02
2022-09-22T20:32:54.403Z,8.18
2022-09-22T20:35:22.148Z,9.82
2022-09-22T20:37:49.031Z,9.20
2022-09-22T20:40:21.565Z,10.60
2022-09-22T20:42:50.465Z,10.02
2022-09-22T20:45:21.049Z,11.55
2022-09-22T20:47:48.284Z,10.43
2022-09-22T20:50:15.150Z,9.35
2022-09-22T20:52:43.059Z,8.20
2022-09-22T20:55:11.353Z,7.82
2022-09-22T20:57:39.268Z,10.05
2022-09-22T21:00:07.123Z,7.60
2022-09-22T21:02:34.019Z,8.45
2022-09-22T21:05:00.977Z,6.93
2022-09-22T21:07:27.756Z,10.15
2022-09-22T21:10:13.464Z,10.30
2022-09-22T21:12:40.569Z,10.15
2022-09-22T21:15:08.230Z,6.97
2022-09-22T21:17:35.636Z,6.78
2022-09-22T21:20:03.198Z,7.03
2022-09-22T21:22:31.150Z,6.95
2022-09-22T21:24:57.949Z,10.02
2022-09-22T21:27:25.255Z,9.27
2022-09-22T21:29:52.029Z,6.00
2022-09-22T21:32:20.098Z,7.18
2022-09-22T21:34:46.917Z,6.28
2022-09-22T21:37:14.721Z,5.40
2022-09-22T21:39:41.475Z,5.45
2022-09-22T21:42:08.301Z,6.72
2022-09-22T21:44:35.084Z,5.55
2022-09-22T21:47:01.870Z,5.90
2022-09-22T21:49:28.678Z,6.85
2022-09-22T21:51:55.470Z,5.78
2022-09-22T21:54:23.241Z,5.13
2022-09-22T21:56:50.870Z,5.50
2022-09-22T21:59:17.931Z,4.82
2022-09-22T22:01:45.420Z,5.50
2022-09-22T22:04:15.176Z,5.90
2022-09-22T22:06:44.568Z,6.15
2022-09-22T22:09:14.809Z,6.65
2022-09-22T22:11:54.850Z,6.78
2022-09-22T22:14:24.494Z,5.18
2022-09-22T22:16:54.540Z,5.22
2022-09-22T22:19:25.969Z,6.82
2022-09-22T22:21:53.896Z,6.85
2022-09-22T22:24:24.423Z,6.60
2022-09-22T22:26:57.272Z,8.02
2022-09-22T22:29:27.311Z,5.90
2022-09-22T22:31:54.506Z,6.82
2022-09-22T22:34:25.701Z,8.20
2022-09-22T22:36:56.112Z,8.10
2022-09-22T22:39:22.873Z,6.40
2022-09-22T22:41:49.998Z,7.45
2022-09-22T22:44:19.556Z,6.80
2022-09-22T22:46:47.052Z,7.28
2022-09-22T22:49:13.917Z,9.57
2022-09-22T22:51:43.481Z,10.05
2022-09-22T22:54:12.077Z,7.85
2022-09-22T22:56:43.236Z,10.45
2022-09-22T22:59:11.974Z,8.77
2022-09-22T23:01:40.587Z,8.52
2022-09-22T23:04:10.458Z,9.77
2022-09-22T23:06:41.911Z,8.07
2022-09-22T23:09:13.965Z,11.88
2022-09-22T23:11:41.747Z,11.00
2022-09-22T23:14:11.697Z,8.38
2022-09-22T23:16:45.122Z,10.23
2022-09-22T23:19:15.346Z,10.52
2022-09-22T23:21:42.225Z,17.00
2022-09-22T23:24:09.864Z,13.98
2022-09-22T23:26:37.666Z,15.38
2022-09-22T23:29:05.288Z,16.08
2022-09-22T23:31:32.195Z,16.60
2022-09-22T23:33:59.364Z,21.35
2022-09-22T23:36:29.072Z,23.60
2022-09-22T23:39:01.981Z,32.17
2022-09-22T23:41:29.557Z,37.22
2022-09-22T23:43:56.572Z,35.75
2022-09-22T23:46:24.697Z,33.28
2022-09-22T23:48:51.883Z,37.17
2022-09-22T23:51:19.701Z,44.58
2022-09-22T23:53:46.515Z,43.88
2022-09-22T23:56:14.236Z,41.25
2022-09-22T23:58:41.063Z,40.35
